VOML/IXE METAR and TAF weather

Enter ICAO airport designator
Station Type Date Time Source
VOML METAR 2020/09/19 05:00 UTC NOAA

VOML 190500Z 25012KT 4000 -RA BR FEW005 SCT012 OVC080 24/23 Q1007 NOSIG


Station Type Date Time Source
VOML Decoded METAR 2020/09/19 05:00 UTC NOAA

Mangalore / Bajpe, India (VOML) 12-55N 074-53E 102M
Sep 19, 2020 - 01:00 AM EDT / 2020.09.19 0500 UTC
Wind: from the WSW (250 degrees) at 14 MPH (12 KT):0
Visibility: 2 mile(s):0
Sky conditions: overcast
Weather: light rain; mist
Temperature: 75 F (24 C)
Dew Point: 73 F (23 C)
Relative Humidity: 94%
Pressure (altimeter): 29.74 in. Hg (1007 hPa)
ob: VOML 190500Z 25012KT 4000 -RA BR FEW005 SCT012 OVC080 24/23 Q1007 NOSIG
cycle: 5

Station Type Date Time Source
VOML TAF 2020/09/19 06:00 UTC NOAA

TAF VOML 190500Z 1906/2012 27010KT 5 SCT012 FEW025CB OVC080
BECMG 1918/1919 09005KT
TEMPO 2000/2003 2000 RA DZ BR SCT005 SCT012 BKN080
BECMG 2006/2007 27010KT
TEMPO 2009/2012 4000 RA DZ BR SCT005 SCT012 FEW025CB BKN080

Example: see airport list